sensor_id;sensor_type;location;lat;lon;timestamp;P1;durP1;ratioP1;P2;durP2;ratioP2
42754;SDS011;28407;51.830;5.684;2022-11-11T00:01:37;5.88;;;4.43;;
42754;SDS011;28407;51.830;5.684;2022-11-11T00:03:56;4.63;;;4.05;;
42754;SDS011;28407;51.830;5.684;2022-11-11T00:06:15;5.50;;;4.25;;
42754;SDS011;28407;51.830;5.684;2022-11-11T00:08:34;5.88;;;3.97;;
42754;SDS011;28407;51.830;5.684;2022-11-11T00:10:58;4.22;;;3.70;;
42754;SDS011;28407;51.830;5.684;2022-11-11T00:13:28;7.32;;;5.05;;
42754;SDS011;28407;51.830;5.684;2022-11-11T00:15:48;4.90;;;3.70;;
42754;SDS011;28407;51.830;5.684;2022-11-11T00:18:09;5.22;;;3.88;;
42754;SDS011;28407;51.830;5.684;2022-11-11T00:20:48;5.15;;;4.22;;
42754;SDS011;28407;51.830;5.684;2022-11-11T00:23:26;5.32;;;3.90;;
42754;SDS011;28407;51.830;5.684;2022-11-11T00:26:04;6.57;;;3.83;;
42754;SDS011;28407;51.830;5.684;2022-11-11T00:28:25;5.35;;;4.03;;
42754;SDS011;28407;51.830;5.684;2022-11-11T00:30:44;5.47;;;4.18;;
42754;SDS011;28407;51.830;5.684;2022-11-11T00:33:03;6.07;;;4.22;;
42754;SDS011;28407;51.830;5.684;2022-11-11T00:35:22;5.32;;;4.00;;
42754;SDS011;28407;51.830;5.684;2022-11-11T00:38:07;5.82;;;5.13;;
42754;SDS011;28407;51.830;5.684;2022-11-11T00:40:27;5.82;;;5.15;;
42754;SDS011;28407;51.830;5.684;2022-11-11T00:42:46;5.15;;;4.10;;
42754;SDS011;28407;51.830;5.684;2022-11-11T00:45:06;5.78;;;4.97;;
42754;SDS011;28407;51.830;5.684;2022-11-11T00:47:25;6.65;;;4.90;;
42754;SDS011;28407;51.830;5.684;2022-11-11T00:50:04;6.57;;;5.32;;
42754;SDS011;28407;51.830;5.684;2022-11-11T00:52:53;6.28;;;4.72;;
42754;SDS011;28407;51.830;5.684;2022-11-11T00:55:12;7.00;;;5.68;;
42754;SDS011;28407;51.830;5.684;2022-11-11T00:57:31;6.50;;;5.20;;
42754;SDS011;28407;51.830;5.684;2022-11-11T00:59:50;7.97;;;5.45;;
42754;SDS011;28407;51.830;5.684;2022-11-11T01:02:09;6.22;;;5.30;;
42754;SDS011;28407;51.830;5.684;2022-11-11T01:04:28;8.18;;;5.63;;
42754;SDS011;28407;51.830;5.684;2022-11-11T01:06:47;8.32;;;6.15;;
42754;SDS011;28407;51.830;5.684;2022-11-11T01:09:07;6.85;;;5.72;;
42754;SDS011;28407;51.830;5.684;2022-11-11T01:11:26;8.35;;;5.80;;
42754;SDS011;28407;51.830;5.684;2022-11-11T01:13:45;6.13;;;5.53;;
42754;SDS011;28407;51.830;5.684;2022-11-11T01:16:05;7.18;;;5.28;;
42754;SDS011;28407;51.830;5.684;2022-11-11T01:18:26;9.27;;;7.15;;
42754;SDS011;28407;51.830;5.684;2022-11-11T01:20:46;6.75;;;6.00;;
42754;SDS011;28407;51.830;5.684;2022-11-11T01:23:07;7.05;;;5.63;;
42754;SDS011;28407;51.830;5.684;2022-11-11T01:25:27;7.65;;;6.47;;
42754;SDS011;28407;51.830;5.684;2022-11-11T01:27:46;6.60;;;5.80;;
42754;SDS011;28407;51.830;5.684;2022-11-11T01:30:05;7.82;;;7.03;;
42754;SDS011;28407;51.830;5.684;2022-11-11T01:32:25;8.23;;;6.68;;
42754;SDS011;28407;51.830;5.684;2022-11-11T01:34:44;8.55;;;6.68;;
42754;SDS011;28407;51.830;5.684;2022-11-11T01:37:03;7.65;;;5.68;;
42754;SDS011;28407;51.830;5.684;2022-11-11T01:39:22;8.25;;;7.10;;
42754;SDS011;28407;51.830;5.684;2022-11-11T01:41:41;8.38;;;6.75;;
42754;SDS011;28407;51.830;5.684;2022-11-11T01:44:01;7.22;;;6.53;;
42754;SDS011;28407;51.830;5.684;2022-11-11T01:46:42;9.02;;;6.63;;
42754;SDS011;28407;51.830;5.684;2022-11-11T01:56:45;8.25;;;7.35;;
42754;SDS011;28407;51.830;5.684;2022-11-11T01:59:08;8.57;;;6.22;;
42754;SDS011;28407;51.830;5.684;2022-11-11T02:03:50;6.15;;;5.13;;
42754;SDS011;28407;51.830;5.684;2022-11-11T02:06:31;5.75;;;5.13;;
42754;SDS011;28407;51.830;5.684;2022-11-11T02:08:51;7.13;;;6.18;;
42754;SDS011;28407;51.830;5.684;2022-11-11T02:11:11;8.38;;;5.95;;
42754;SDS011;28407;51.830;5.684;2022-11-11T02:13:36;8.68;;;7.05;;
42754;SDS011;28407;51.830;5.684;2022-11-11T02:16:15;8.52;;;6.68;;
42754;SDS011;28407;51.830;5.684;2022-11-11T02:18:35;9.63;;;6.50;;
42754;SDS011;28407;51.830;5.684;2022-11-11T02:20:54;7.40;;;6.10;;
42754;SDS011;28407;51.830;5.684;2022-11-11T02:23:18;8.20;;;6.82;;
42754;SDS011;28407;51.830;5.684;2022-11-11T02:25:52;8.60;;;6.93;;
42754;SDS011;28407;51.830;5.684;2022-11-11T02:28:13;9.77;;;7.22;;
42754;SDS011;28407;51.830;5.684;2022-11-11T02:30:34;8.15;;;6.68;;
42754;SDS011;28407;51.830;5.684;2022-11-11T02:32:53;7.88;;;6.82;;
42754;SDS011;28407;51.830;5.684;2022-11-11T02:35:14;10.82;;;7.07;;
42754;SDS011;28407;51.830;5.684;2022-11-11T02:37:35;7.10;;;6.28;;
42754;SDS011;28407;51.830;5.684;2022-11-11T02:39:56;8.38;;;6.72;;
42754;SDS011;28407;51.830;5.684;2022-11-11T02:42:20;10.05;;;7.05;;
42754;SDS011;28407;51.830;5.684;2022-11-11T02:44:41;11.77;;;7.30;;
42754;SDS011;28407;51.830;5.684;2022-11-11T02:47:00;10.80;;;6.85;;
42754;SDS011;28407;51.830;5.684;2022-11-11T02:49:19;7.80;;;6.75;;
42754;SDS011;28407;51.830;5.684;2022-11-11T02:51:38;9.40;;;6.82;;
42754;SDS011;28407;51.830;5.684;2022-11-11T02:53:57;9.70;;;6.65;;
42754;SDS011;28407;51.830;5.684;2022-11-11T02:56:20;8.25;;;6.60;;
42754;SDS011;28407;51.830;5.684;2022-11-11T02:58:58;7.43;;;6.40;;
42754;SDS011;28407;51.830;5.684;2022-11-11T03:01:17;7.15;;;6.45;;
42754;SDS011;28407;51.830;5.684;2022-11-11T03:03:37;8.15;;;6.40;;
42754;SDS011;28407;51.830;5.684;2022-11-11T03:05:56;8.27;;;5.90;;
42754;SDS011;28407;51.830;5.684;2022-11-11T03:08:15;8.45;;;6.75;;
42754;SDS011;28407;51.830;5.684;2022-11-11T03:10:34;7.15;;;5.95;;
42754;SDS011;28407;51.830;5.684;2022-11-11T03:12:53;7.18;;;5.57;;
42754;SDS011;28407;51.830;5.684;2022-11-11T03:15:13;9.55;;;6.15;;
42754;SDS011;28407;51.830;5.684;2022-11-11T03:17:32;8.30;;;6.65;;
42754;SDS011;28407;51.830;5.684;2022-11-11T03:19:57;7.75;;;5.97;;
42754;SDS011;28407;51.830;5.684;2022-11-11T03:22:37;7.28;;;6.20;;
42754;SDS011;28407;51.830;5.684;2022-11-11T03:24:55;7.47;;;5.60;;
42754;SDS011;28407;51.830;5.684;2022-11-11T03:27:33;6.80;;;5.78;;
42754;SDS011;28407;51.830;5.684;2022-11-11T03:29:52;7.70;;;6.45;;
42754;SDS011;28407;51.830;5.684;2022-11-11T03:32:11;7.57;;;5.90;;
42754;SDS011;28407;51.830;5.684;2022-11-11T03:34:31;7.63;;;5.72;;
42754;SDS011;28407;51.830;5.684;2022-11-11T03:36:50;7.00;;;5.85;;
42754;SDS011;28407;51.830;5.684;2022-11-11T03:39:28;7.18;;;5.72;;
42754;SDS011;28407;51.830;5.684;2022-11-11T03:41:47;5.85;;;5.10;;
42754;SDS011;28407;51.830;5.684;2022-11-11T03:44:06;8.95;;;6.40;;
42754;SDS011;28407;51.830;5.684;2022-11-11T03:46:25;7.05;;;6.22;;
42754;SDS011;28407;51.830;5.684;2022-11-11T03:48:44;8.27;;;5.78;;
42754;SDS011;28407;51.830;5.684;2022-11-11T03:51:04;7.05;;;6.10;;
42754;SDS011;28407;51.830;5.684;2022-11-11T03:53:23;7.13;;;5.50;;
42754;SDS011;28407;51.830;5.684;2022-11-11T03:55:42;7.20;;;6.25;;
42754;SDS011;28407;51.830;5.684;2022-11-11T03:58:01;7.72;;;6.10;;
42754;SDS011;28407;51.830;5.684;2022-11-11T04:00:22;7.03;;;6.32;;
42754;SDS011;28407;51.830;5.684;2022-11-11T04:02:43;8.63;;;5.63;;
42754;SDS011;28407;51.830;5.684;2022-11-11T04:05:21;8.63;;;6.78;;
42754;SDS011;28407;51.830;5.684;2022-11-11T04:07:59;7.50;;;6.10;;
42754;SDS011;28407;51.830;5.684;2022-11-11T04:10:37;6.80;;;5.47;;
42754;SDS011;28407;51.830;5.684;2022-11-11T04:12:56;9.07;;;6.68;;
42754;SDS011;28407;51.830;5.684;2022-11-11T04:15:36;7.22;;;5.97;;
42754;SDS011;28407;51.830;5.684;2022-11-11T04:18:30;8.98;;;5.85;;
42754;SDS011;28407;51.830;5.684;2022-11-11T04:21:09;7.35;;;6.53;;
42754;SDS011;28407;51.830;5.684;2022-11-11T04:23:47;8.40;;;5.93;;
42754;SDS011;28407;51.830;5.684;2022-11-11T04:26:07;9.73;;;6.45;;
42754;SDS011;28407;51.830;5.684;2022-11-11T04:28:25;9.50;;;5.90;;
42754;SDS011;28407;51.830;5.684;2022-11-11T04:31:04;10.55;;;7.03;;
42754;SDS011;28407;51.830;5.684;2022-11-11T04:33:22;8.85;;;5.88;;
42754;SDS011;28407;51.830;5.684;2022-11-11T04:35:42;6.60;;;5.38;;
42754;SDS011;28407;51.830;5.684;2022-11-11T04:38:00;6.18;;;5.32;;
42754;SDS011;28407;51.830;5.684;2022-11-11T04:40:38;8.30;;;5.80;;
42754;SDS011;28407;51.830;5.684;2022-11-11T04:43:16;7.90;;;5.70;;
42754;SDS011;28407;51.830;5.684;2022-11-11T04:45:35;6.97;;;5.30;;
42754;SDS011;28407;51.830;5.684;2022-11-11T04:48:00;7.78;;;5.35;;
42754;SDS011;28407;51.830;5.684;2022-11-11T04:50:19;6.43;;;5.28;;
42754;SDS011;28407;51.830;5.684;2022-11-11T04:52:39;8.75;;;5.68;;
42754;SDS011;28407;51.830;5.684;2022-11-11T04:54:58;6.95;;;5.53;;
42754;SDS011;28407;51.830;5.684;2022-11-11T04:57:40;8.25;;;6.43;;
42754;SDS011;28407;51.830;5.684;2022-11-11T05:00:00;7.65;;;5.43;;
42754;SDS011;28407;51.830;5.684;2022-11-11T05:02:19;9.40;;;5.88;;
42754;SDS011;28407;51.830;5.684;2022-11-11T05:04:57;7.10;;;6.35;;
42754;SDS011;28407;51.830;5.684;2022-11-11T05:07:16;7.75;;;5.63;;
42754;SDS011;28407;51.830;5.684;2022-11-11T05:09:54;7.75;;;5.78;;
42754;SDS011;28407;51.830;5.684;2022-11-11T05:12:13;6.68;;;4.88;;
42754;SDS011;28407;51.830;5.684;2022-11-11T05:14:32;6.03;;;5.05;;
42754;SDS011;28407;51.830;5.684;2022-11-11T05:17:10;8.13;;;5.55;;
42754;SDS011;28407;51.830;5.684;2022-11-11T05:19:48;7.15;;;5.47;;
42754;SDS011;28407;51.830;5.684;2022-11-11T05:22:27;6.20;;;5.47;;
42754;SDS011;28407;51.830;5.684;2022-11-11T05:24:48;6.10;;;4.95;;
42754;SDS011;28407;51.830;5.684;2022-11-11T05:27:27;7.85;;;6.45;;
42754;SDS011;28407;51.830;5.684;2022-11-11T05:29:46;7.30;;;5.53;;
42754;SDS011;28407;51.830;5.684;2022-11-11T05:32:06;5.88;;;5.22;;
42754;SDS011;28407;51.830;5.684;2022-11-11T05:34:26;7.53;;;5.65;;
42754;SDS011;28407;51.830;5.684;2022-11-11T05:36:45;7.65;;;6.03;;
42754;SDS011;28407;51.830;5.684;2022-11-11T05:39:04;7.85;;;5.55;;
42754;SDS011;28407;51.830;5.684;2022-11-11T05:41:23;6.70;;;5.60;;
42754;SDS011;28407;51.830;5.684;2022-11-11T05:43:42;7.93;;;6.57;;
42754;SDS011;28407;51.830;5.684;2022-11-11T05:46:01;9.07;;;6.63;;
42754;SDS011;28407;51.830;5.684;2022-11-11T05:48:22;6.40;;;4.90;;
42754;SDS011;28407;51.830;5.684;2022-11-11T05:50:41;6.28;;;5.68;;
42754;SDS011;28407;51.830;5.684;2022-11-11T05:53:00;9.30;;;6.22;;
42754;SDS011;28407;51.830;5.684;2022-11-11T05:55:19;8.43;;;6.65;;
42754;SDS011;28407;51.830;5.684;2022-11-11T05:57:38;7.07;;;5.75;;
42754;SDS011;28407;51.830;5.684;2022-11-11T05:59:57;7.53;;;6.53;;
42754;SDS011;28407;51.830;5.684;2022-11-11T06:02:16;8.35;;;6.72;;
42754;SDS011;28407;51.830;5.684;2022-11-11T06:04:35;8.85;;;5.93;;
42754;SDS011;28407;51.830;5.684;2022-11-11T06:06:54;9.23;;;6.95;;
42754;SDS011;28407;51.830;5.684;2022-11-11T06:09:13;7.05;;;5.93;;
42754;SDS011;28407;51.830;5.684;2022-11-11T06:11:32;9.55;;;6.00;;
42754;SDS011;28407;51.830;5.684;2022-11-11T06:13:52;7.45;;;5.53;;
42754;SDS011;28407;51.830;5.684;2022-11-11T06:16:11;7.95;;;6.22;;
42754;SDS011;28407;51.830;5.684;2022-11-11T06:18:30;9.65;;;6.25;;
42754;SDS011;28407;51.830;5.684;2022-11-11T06:20:53;8.43;;;6.65;;
42754;SDS011;28407;51.830;5.684;2022-11-11T06:23:16;8.13;;;6.32;;
42754;SDS011;28407;51.830;5.684;2022-11-11T06:25:35;9.40;;;7.15;;
42754;SDS011;28407;51.830;5.684;2022-11-11T06:28:14;8.18;;;6.80;;
42754;SDS011;28407;51.830;5.684;2022-11-11T06:30:34;9.15;;;7.65;;
42754;SDS011;28407;51.830;5.684;2022-11-11T06:32:53;8.55;;;7.15;;
42754;SDS011;28407;51.830;5.684;2022-11-11T06:35:12;7.53;;;6.38;;
42754;SDS011;28407;51.830;5.684;2022-11-11T06:37:31;9.48;;;7.05;;
42754;SDS011;28407;51.830;5.684;2022-11-11T06:39:50;8.05;;;6.13;;
42754;SDS011;28407;51.830;5.684;2022-11-11T06:42:09;8.02;;;6.85;;
42754;SDS011;28407;51.830;5.684;2022-11-11T06:44:29;7.63;;;6.30;;
42754;SDS011;28407;51.830;5.684;2022-11-11T06:46:47;8.57;;;6.35;;
42754;SDS011;28407;51.830;5.684;2022-11-11T06:49:06;10.57;;;7.63;;
42754;SDS011;28407;51.830;5.684;2022-11-11T06:51:25;6.93;;;5.97;;
42754;SDS011;28407;51.830;5.684;2022-11-11T06:53:44;6.68;;;5.97;;
42754;SDS011;28407;51.830;5.684;2022-11-11T06:56:03;7.70;;;6.40;;
42754;SDS011;28407;51.830;5.684;2022-11-11T06:58:25;7.57;;;6.57;;
42754;SDS011;28407;51.830;5.684;2022-11-11T07:00:45;6.57;;;5.60;;
42754;SDS011;28407;51.830;5.684;2022-11-11T07:03:05;7.25;;;6.32;;
42754;SDS011;28407;51.830;5.684;2022-11-11T07:05:25;9.30;;;7.13;;
42754;SDS011;28407;51.830;5.684;2022-11-11T07:07:44;7.05;;;6.18;;
42754;SDS011;28407;51.830;5.684;2022-11-11T07:10:03;7.47;;;6.70;;
42754;SDS011;28407;51.830;5.684;2022-11-11T07:12:24;6.88;;;5.97;;
42754;SDS011;28407;51.830;5.684;2022-11-11T07:14:43;8.02;;;6.97;;
42754;SDS011;28407;51.830;5.684;2022-11-11T07:17:02;9.05;;;6.90;;
42754;SDS011;28407;51.830;5.684;2022-11-11T07:19:22;8.25;;;6.82;;
42754;SDS011;28407;51.830;5.684;2022-11-11T07:21:41;7.97;;;6.80;;
42754;SDS011;28407;51.830;5.684;2022-11-11T07:24:00;8.30;;;6.70;;
42754;SDS011;28407;51.830;5.684;2022-11-11T07:26:19;8.55;;;7.32;;
42754;SDS011;28407;51.830;5.684;2022-11-11T07:28:38;8.55;;;6.50;;
42754;SDS011;28407;51.830;5.684;2022-11-11T07:30:57;7.53;;;5.97;;
42754;SDS011;28407;51.830;5.684;2022-11-11T07:33:16;9.20;;;8.02;;
42754;SDS011;28407;51.830;5.684;2022-11-11T07:35:35;8.27;;;6.90;;
42754;SDS011;28407;51.830;5.684;2022-11-11T07:37:54;8.63;;;6.40;;
42754;SDS011;28407;51.830;5.684;2022-11-11T07:40:14;7.45;;;6.47;;
42754;SDS011;28407;51.830;5.684;2022-11-11T07:42:35;7.63;;;6.72;;
42754;SDS011;28407;51.830;5.684;2022-11-11T07:44:55;9.57;;;6.75;;
42754;SDS011;28407;51.830;5.684;2022-11-11T07:47:14;9.27;;;7.57;;
42754;SDS011;28407;51.830;5.684;2022-11-11T07:49:33;8.30;;;6.28;;
42754;SDS011;28407;51.830;5.684;2022-11-11T07:51:52;8.05;;;6.68;;
42754;SDS011;28407;51.830;5.684;2022-11-11T07:54:11;8.85;;;6.90;;
42754;SDS011;28407;51.830;5.684;2022-11-11T07:56:30;7.47;;;6.30;;
42754;SDS011;28407;51.830;5.684;2022-11-11T07:58:49;8.57;;;6.93;;
42754;SDS011;28407;51.830;5.684;2022-11-11T08:01:09;8.07;;;6.68;;
42754;SDS011;28407;51.830;5.684;2022-11-11T08:03:28;11.63;;;7.70;;
42754;SDS011;28407;51.830;5.684;2022-11-11T08:05:47;9.60;;;7.28;;
42754;SDS011;28407;51.830;5.684;2022-11-11T08:08:07;9.30;;;7.38;;
42754;SDS011;28407;51.830;5.684;2022-11-11T08:10:27;8.68;;;7.28;;
42754;SDS011;28407;51.830;5.684;2022-11-11T08:12:52;9.65;;;6.70;;
42754;SDS011;28407;51.830;5.684;2022-11-11T08:15:30;9.50;;;7.03;;
42754;SDS011;28407;51.830;5.684;2022-11-11T08:17:49;9.48;;;8.05;;
42754;SDS011;28407;51.830;5.684;2022-11-11T08:20:08;9.43;;;7.25;;
42754;SDS011;28407;51.830;5.684;2022-11-11T08:22:28;7.65;;;6.35;;
42754;SDS011;28407;51.830;5.684;2022-11-11T08:24:47;9.38;;;7.30;;
42754;SDS011;28407;51.830;5.684;2022-11-11T08:27:06;8.38;;;6.43;;
42754;SDS011;28407;51.830;5.684;2022-11-11T08:29:25;9.05;;;6.93;;
42754;SDS011;28407;51.830;5.684;2022-11-11T08:31:44;10.02;;;6.50;;
42754;SDS011;28407;51.830;5.684;2022-11-11T08:34:04;8.30;;;6.70;;
42754;SDS011;28407;51.830;5.684;2022-11-11T08:36:24;9.15;;;6.40;;
42754;SDS011;28407;51.830;5.684;2022-11-11T08:38:44;8.18;;;6.78;;
42754;SDS011;28407;51.830;5.684;2022-11-11T08:41:04;7.85;;;6.68;;
42754;SDS011;28407;51.830;5.684;2022-11-11T08:43:24;8.18;;;5.90;;
42754;SDS011;28407;51.830;5.684;2022-11-11T08:45:44;7.30;;;6.47;;
42754;SDS011;28407;51.830;5.684;2022-11-11T08:48:03;8.32;;;6.75;;
42754;SDS011;28407;51.830;5.684;2022-11-11T08:50:23;8.00;;;6.57;;
42754;SDS011;28407;51.830;5.684;2022-11-11T08:52:46;7.80;;;6.40;;
42754;SDS011;28407;51.830;5.684;2022-11-11T08:55:06;7.72;;;6.55;;
42754;SDS011;28407;51.830;5.684;2022-11-11T08:57:25;7.95;;;6.70;;
42754;SDS011;28407;51.830;5.684;2022-11-11T08:59:44;7.43;;;6.22;;
42754;SDS011;28407;51.830;5.684;2022-11-11T09:02:03;9.48;;;7.03;;
42754;SDS011;28407;51.830;5.684;2022-11-11T09:04:22;7.90;;;6.65;;
42754;SDS011;28407;51.830;5.684;2022-11-11T09:06:41;7.28;;;5.90;;
42754;SDS011;28407;51.830;5.684;2022-11-11T09:09:03;8.43;;;6.90;;
42754;SDS011;28407;51.830;5.684;2022-11-11T09:11:22;7.38;;;6.05;;
42754;SDS011;28407;51.830;5.684;2022-11-11T09:13:41;6.95;;;5.63;;
42754;SDS011;28407;51.830;5.684;2022-11-11T09:16:00;8.48;;;7.05;;
42754;SDS011;28407;51.830;5.684;2022-11-11T09:18:19;9.40;;;6.97;;
42754;SDS011;28407;51.830;5.684;2022-11-11T09:20:38;8.00;;;6.47;;
42754;SDS011;28407;51.830;5.684;2022-11-11T09:22:57;7.28;;;6.40;;
42754;SDS011;28407;51.830;5.684;2022-11-11T09:25:16;7.43;;;6.45;;
42754;SDS011;28407;51.830;5.684;2022-11-11T09:27:34;9.85;;;6.78;;
42754;SDS011;28407;51.830;5.684;2022-11-11T09:29:53;11.02;;;7.90;;
42754;SDS011;28407;51.830;5.684;2022-11-11T09:32:12;8.90;;;6.45;;
42754;SDS011;28407;51.830;5.684;2022-11-11T09:34:32;9.52;;;6.40;;
42754;SDS011;28407;51.830;5.684;2022-11-11T09:36:51;7.63;;;5.85;;
42754;SDS011;28407;51.830;5.684;2022-11-11T09:39:10;8.45;;;6.10;;
42754;SDS011;28407;51.830;5.684;2022-11-11T09:41:35;7.30;;;6.10;;
42754;SDS011;28407;51.830;5.684;2022-11-11T09:43:56;9.45;;;7.32;;
42754;SDS011;28407;51.830;5.684;2022-11-11T09:49:19;7.47;;;5.82;;
42754;SDS011;28407;51.830;5.684;2022-11-11T09:52:02;6.80;;;5.82;;
42754;SDS011;28407;51.830;5.684;2022-11-11T09:54:57;7.10;;;6.25;;
42754;SDS011;28407;51.830;5.684;2022-11-11T09:57:22;7.68;;;6.32;;
42754;SDS011;28407;51.830;5.684;2022-11-11T09:59:51;7.97;;;6.25;;
42754;SDS011;28407;51.830;5.684;2022-11-11T10:02:16;7.25;;;5.05;;
42754;SDS011;28407;51.830;5.684;2022-11-11T10:04:56;7.32;;;5.72;;
42754;SDS011;28407;51.830;5.684;2022-11-11T10:07:27;7.40;;;6.05;;
42754;SDS011;28407;51.830;5.684;2022-11-11T10:09:56;7.43;;;6.25;;
42754;SDS011;28407;51.830;5.684;2022-11-11T10:12:22;6.03;;;4.80;;
42754;SDS011;28407;51.830;5.684;2022-11-11T10:14:50;7.35;;;5.82;;
42754;SDS011;28407;51.830;5.684;2022-11-11T10:22:34;7.68;;;5.40;;
42754;SDS011;28407;51.830;5.684;2022-11-11T10:25:17;7.35;;;5.28;;
42754;SDS011;28407;51.830;5.684;2022-11-11T10:27:39;6.40;;;5.00;;
42754;SDS011;28407;51.830;5.684;2022-11-11T10:30:06;7.00;;;5.43;;
42754;SDS011;28407;51.830;5.684;2022-11-11T10:32:33;6.78;;;5.78;;
42754;SDS011;28407;51.830;5.684;2022-11-11T10:34:53;7.00;;;6.20;;
42754;SDS011;28407;51.830;5.684;2022-11-11T10:37:21;6.30;;;5.70;;
42754;SDS011;28407;51.830;5.684;2022-11-11T10:39:53;6.88;;;4.88;;
42754;SDS011;28407;51.830;5.684;2022-11-11T10:42:25;5.78;;;4.53;;
42754;SDS011;28407;51.830;5.684;2022-11-11T10:44:44;5.75;;;4.65;;
42754;SDS011;28407;51.830;5.684;2022-11-11T10:50:07;5.95;;;4.65;;
42754;SDS011;28407;51.830;5.684;2022-11-11T10:52:44;7.18;;;5.15;;
42754;SDS011;28407;51.830;5.684;2022-11-11T10:57:45;5.50;;;4.18;;
42754;SDS011;28407;51.830;5.684;2022-11-11T11:00:17;5.82;;;4.78;;
42754;SDS011;28407;51.830;5.684;2022-11-11T11:02:39;6.47;;;4.65;;
42754;SDS011;28407;51.830;5.684;2022-11-11T11:05:17;5.05;;;4.53;;
42754;SDS011;28407;51.830;5.684;2022-11-11T11:07:44;6.40;;;4.60;;
42754;SDS011;28407;51.830;5.684;2022-11-11T11:10:14;5.25;;;4.53;;
42754;SDS011;28407;51.830;5.684;2022-11-11T11:15:36;4.93;;;3.95;;
42754;SDS011;28407;51.830;5.684;2022-11-11T11:18:01;5.50;;;4.32;;
42754;SDS011;28407;51.830;5.684;2022-11-11T11:20:28;4.57;;;4.00;;
42754;SDS011;28407;51.830;5.684;2022-11-11T11:25:08;4.70;;;4.10;;
42754;SDS011;28407;51.830;5.684;2022-11-11T11:27:29;5.03;;;4.53;;
42754;SDS011;28407;51.830;5.684;2022-11-11T11:29:48;4.57;;;4.03;;
42754;SDS011;28407;51.830;5.684;2022-11-11T11:34:44;4.53;;;3.88;;
42754;SDS011;28407;51.830;5.684;2022-11-11T11:37:05;5.05;;;4.25;;
42754;SDS011;28407;51.830;5.684;2022-11-11T11:39:35;6.10;;;4.30;;
42754;SDS011;28407;51.830;5.684;2022-11-11T11:41:56;5.32;;;4.35;;
42754;SDS011;28407;51.830;5.684;2022-11-11T11:46:47;5.60;;;4.30;;
42754;SDS011;28407;51.830;5.684;2022-11-11T11:49:18;4.90;;;4.13;;
42754;SDS011;28407;51.830;5.684;2022-11-11T11:51:56;4.85;;;4.07;;
42754;SDS011;28407;51.830;5.684;2022-11-11T11:54:45;4.47;;;4.03;;
42754;SDS011;28407;51.830;5.684;2022-11-11T11:57:54;4.68;;;4.00;;
42754;SDS011;28407;51.830;5.684;2022-11-11T12:00:05;4.35;;;3.85;;
42754;SDS011;28407;51.830;5.684;2022-11-11T12:05:40;4.93;;;3.55;;
42754;SDS011;28407;51.830;5.684;2022-11-11T12:08:07;6.00;;;3.95;;
42754;SDS011;28407;51.830;5.684;2022-11-11T12:15:33;3.67;;;3.08;;
42754;SDS011;28407;51.830;5.684;2022-11-11T12:20:17;3.92;;;3.28;;
42754;SDS011;28407;51.830;5.684;2022-11-11T12:22:57;4.90;;;3.00;;
42754;SDS011;28407;51.830;5.684;2022-11-11T12:25:29;3.75;;;3.35;;
42754;SDS011;28407;51.830;5.684;2022-11-11T12:30:50;4.03;;;3.40;;
42754;SDS011;28407;51.830;5.684;2022-11-11T12:43:42;3.42;;;2.88;;
42754;SDS011;28407;51.830;5.684;2022-11-11T12:46:15;4.38;;;3.70;;
42754;SDS011;28407;51.830;5.684;2022-11-11T12:54:22;3.97;;;3.58;;
42754;SDS011;28407;51.830;5.684;2022-11-11T12:57:00;3.55;;;2.65;;
42754;SDS011;28407;51.830;5.684;2022-11-11T12:59:52;3.47;;;2.75;;
42754;SDS011;28407;51.830;5.684;2022-11-11T13:05:18;4.72;;;2.60;;
42754;SDS011;28407;51.830;5.684;2022-11-11T13:13:48;2.83;;;2.53;;
42754;SDS011;28407;51.830;5.684;2022-11-11T13:16:09;2.75;;;2.38;;
42754;SDS011;28407;51.830;5.684;2022-11-11T13:18:45;2.60;;;2.40;;
42754;SDS011;28407;51.830;5.684;2022-11-11T13:21:15;2.30;;;2.10;;
42754;SDS011;28407;51.830;5.684;2022-11-11T13:23:39;2.97;;;2.22;;
42754;SDS011;28407;51.830;5.684;2022-11-11T13:25:59;2.95;;;2.65;;
42754;SDS011;28407;51.830;5.684;2022-11-11T13:28:27;3.38;;;2.53;;
42754;SDS011;28407;51.830;5.684;2022-11-11T13:31:00;3.28;;;2.03;;
42754;SDS011;28407;51.830;5.684;2022-11-11T13:33:43;2.13;;;1.85;;
42754;SDS011;28407;51.830;5.684;2022-11-11T13:36:05;2.30;;;2.10;;
42754;SDS011;28407;51.830;5.684;2022-11-11T13:38:28;2.10;;;1.90;;
42754;SDS011;28407;51.830;5.684;2022-11-11T13:40:54;2.33;;;2.13;;
42754;SDS011;28407;51.830;5.684;2022-11-11T13:43:15;2.28;;;2.08;;
42754;SDS011;28407;51.830;5.684;2022-11-11T13:45:38;3.35;;;2.35;;
42754;SDS011;28407;51.830;5.684;2022-11-11T13:48:00;2.63;;;2.17;;
42754;SDS011;28407;51.830;5.684;2022-11-11T13:52:54;3.45;;;1.80;;
42754;SDS011;28407;51.830;5.684;2022-11-11T13:55:34;2.22;;;1.90;;
42754;SDS011;28407;51.830;5.684;2022-11-11T13:57:58;2.42;;;1.90;;
42754;SDS011;28407;51.830;5.684;2022-11-11T14:02:39;4.63;;;2.47;;
42754;SDS011;28407;51.830;5.684;2022-11-11T14:09:59;2.08;;;1.80;;
42754;SDS011;28407;51.830;5.684;2022-11-11T14:12:21;2.53;;;2.00;;
42754;SDS011;28407;51.830;5.684;2022-11-11T14:14:55;3.13;;;2.00;;
42754;SDS011;28407;51.830;5.684;2022-11-11T14:17:15;8.45;;;3.30;;
42754;SDS011;28407;51.830;5.684;2022-11-11T14:19:35;2.67;;;1.98;;
42754;SDS011;28407;51.830;5.684;2022-11-11T14:21:55;4.18;;;2.15;;
42754;SDS011;28407;51.830;5.684;2022-11-11T14:26:55;2.28;;;1.90;;
42754;SDS011;28407;51.830;5.684;2022-11-11T14:29:17;2.77;;;2.00;;
42754;SDS011;28407;51.830;5.684;2022-11-11T14:34:24;2.78;;;1.90;;
42754;SDS011;28407;51.830;5.684;2022-11-11T14:37:29;2.42;;;2.22;;
42754;SDS011;28407;51.830;5.684;2022-11-11T14:39:59;2.50;;;2.30;;
42754;SDS011;28407;51.830;5.684;2022-11-11T14:44:52;2.63;;;2.00;;
42754;SDS011;28407;51.830;5.684;2022-11-11T14:52:03;2.10;;;1.90;;
42754;SDS011;28407;51.830;5.684;2022-11-11T14:57:20;2.33;;;1.90;;
42754;SDS011;28407;51.830;5.684;2022-11-11T14:59:47;2.30;;;1.95;;
42754;SDS011;28407;51.830;5.684;2022-11-11T15:02:10;2.72;;;1.95;;
42754;SDS011;28407;51.830;5.684;2022-11-11T15:04:39;2.30;;;2.10;;
42754;SDS011;28407;51.830;5.684;2022-11-11T15:06:59;3.05;;;2.15;;
42754;SDS011;28407;51.830;5.684;2022-11-11T15:09:35;2.42;;;1.98;;
42754;SDS011;28407;51.830;5.684;2022-11-11T15:15:19;2.20;;;2.00;;
42754;SDS011;28407;51.830;5.684;2022-11-11T15:20:28;2.95;;;2.13;;
42754;SDS011;28407;51.830;5.684;2022-11-11T15:28:33;3.63;;;2.28;;
42754;SDS011;28407;51.830;5.684;2022-11-11T15:30:40;2.28;;;2.08;;
42754;SDS011;28407;51.830;5.684;2022-11-11T15:33:17;3.80;;;2.10;;
42754;SDS011;28407;51.830;5.684;2022-11-11T15:35:45;2.20;;;2.00;;
42754;SDS011;28407;51.830;5.684;2022-11-11T15:38:16;3.95;;;2.17;;
42754;SDS011;28407;51.830;5.684;2022-11-11T15:40:56;5.47;;;2.17;;
42754;SDS011;28407;51.830;5.684;2022-11-11T15:43:20;3.40;;;3.10;;
42754;SDS011;28407;51.830;5.684;2022-11-11T15:45:42;2.83;;;2.17;;
42754;SDS011;28407;51.830;5.684;2022-11-11T15:48:01;3.25;;;2.10;;
42754;SDS011;28407;51.830;5.684;2022-11-11T15:52:43;2.30;;;2.10;;
42754;SDS011;28407;51.830;5.684;2022-11-11T15:55:09;3.08;;;2.28;;
42754;SDS011;28407;51.830;5.684;2022-11-11T15:57:43;2.63;;;2.20;;
42754;SDS011;28407;51.830;5.684;2022-11-11T16:00:18;2.53;;;2.33;;
42754;SDS011;28407;51.830;5.684;2022-11-11T16:02:47;3.05;;;2.60;;
42754;SDS011;28407;51.830;5.684;2022-11-11T16:05:19;3.42;;;2.03;;
42754;SDS011;28407;51.830;5.684;2022-11-11T16:07:41;5.25;;;2.30;;
42754;SDS011;28407;51.830;5.684;2022-11-11T16:10:35;2.95;;;2.50;;
42754;SDS011;28407;51.830;5.684;2022-11-11T16:12:51;2.92;;;2.65;;
42754;SDS011;28407;51.830;5.684;2022-11-11T16:15:27;2.95;;;2.30;;
42754;SDS011;28407;51.830;5.684;2022-11-11T16:18:04;3.03;;;2.42;;
42754;SDS011;28407;51.830;5.684;2022-11-11T16:20:29;3.05;;;2.70;;
42754;SDS011;28407;51.830;5.684;2022-11-11T16:22:55;2.53;;;2.30;;